Time;durP1;ratioP1;P1;durP2;ratioP2;P2;SDS_P1;SDS_P2;PMS_P1;PMS_P2;Temp;Humidity;BMP_temperature;BMP_pressure;BME280_temperature;BME280_humidity;BME280_pressure;Samples;Min_cycle;Max_cycle;Signal;HPM_P1;HPM_P2
2024/04/14 00:02:06;0.00;0.00;0.62;0.00;0.00;0.62;4.27;3.17;;;28.40;28.30;;;;;;2041930;62;20596;-67
2024/04/14 00:04:55;0.00;0.00;0.62;0.00;0.00;0.62;3.90;3.20;;;28.40;28.30;;;;;;2042237;62;20463;-65
2024/04/14 00:07:40;0.00;0.00;0.62;0.00;0.00;0.62;3.47;2.87;;;28.40;28.30;;;;;;2046348;62;21024;-66
2024/04/14 00:10:24;0.00;0.00;0.62;0.00;0.00;0.62;4.30;3.60;;;28.40;28.30;;;;;;2046875;62;20514;-66
2024/04/14 00:13:09;0.00;0.00;0.62;0.00;0.00;0.62;4.53;3.43;;;28.40;28.30;;;;;;2046647;62;20468;-66
2024/04/14 00:15:59;0.00;0.00;0.62;0.00;0.00;0.62;4.37;3.40;;;28.40;28.90;;;;;;2046793;62;21017;-66
2024/04/14 00:18:44;0.00;0.00;0.62;0.00;0.00;0.62;5.90;3.40;;;28.40;28.40;;;;;;2046650;62;20563;-65
2024/04/14 00:21:31;0.00;0.00;0.62;0.00;0.00;0.62;5.83;3.70;;;28.40;28.40;;;;;;2046616;62;20464;-67
2024/04/14 00:24:16;0.00;0.00;0.62;0.00;0.00;0.62;5.50;2.60;;;28.40;28.40;;;;;;2046970;62;20456;-67
2024/04/14 00:27:01;0.00;0.00;0.62;0.00;0.00;0.62;4.70;3.10;;;28.40;28.90;;;;;;2045917;62;20912;-67
2024/04/14 00:29:45;0.00;0.00;0.62;0.00;0.00;0.62;4.37;3.70;;;28.40;28.30;;;;;;2041134;62;20492;-67
2024/04/14 00:32:30;0.00;0.00;0.62;0.00;0.00;0.62;4.83;3.10;;;28.40;28.40;;;;;;2041762;62;20453;-65
2024/04/14 00:35:15;0.00;0.00;0.62;0.00;0.00;0.62;5.40;3.43;;;28.40;28.40;;;;;;2041576;62;20540;-65
2024/04/14 00:38:03;0.00;0.00;0.62;0.00;0.00;0.62;4.40;3.30;;;28.40;28.30;;;;;;2041601;62;20537;-65
2024/04/14 00:40:48;0.00;0.00;0.62;0.00;0.00;0.62;4.07;3.10;;;28.40;28.30;;;;;;2041545;62;20466;-66
2024/04/14 00:43:33;0.00;0.00;0.62;0.00;0.00;0.62;3.27;2.90;;;28.40;28.30;;;;;;2041466;62;20485;-66
2024/04/14 00:46:18;0.00;0.00;0.62;0.00;0.00;0.62;4.37;3.23;;;28.40;28.30;;;;;;2041807;62;20528;-66
2024/04/14 00:49:03;0.00;0.00;0.62;0.00;0.00;0.62;3.40;3.10;;;28.30;28.80;;;;;;2041108;62;20509;-66
2024/04/14 00:51:48;0.00;0.00;0.62;0.00;0.00;0.62;3.67;2.83;;;28.30;28.30;;;;;;2041737;62;20605;-67
2024/04/14 00:54:36;0.00;0.00;0.62;0.00;0.00;0.62;3.50;2.90;;;28.40;28.30;;;;;;2041753;62;20461;-67
2024/04/14 00:57:22;0.00;0.00;0.62;0.00;0.00;0.62;3.47;3.17;;;28.40;28.30;;;;;;2041279;62;20874;-66
2024/04/14 01:00:09;0.00;0.00;0.62;0.00;0.00;0.62;4.87;2.90;;;28.30;28.20;;;;;;2040965;62;20465;-66
2024/04/14 01:02:55;0.00;0.00;0.62;0.00;0.00;0.62;4.30;3.27;;;28.30;28.20;;;;;;2041844;62;21073;-66
2024/04/14 01:05:40;0.00;0.00;0.62;0.00;0.00;0.62;4.70;3.30;;;28.30;28.20;;;;;;2045587;62;20465;-66
2024/04/14 01:08:25;0.00;0.00;0.62;0.00;0.00;0.62;5.00;3.70;;;28.30;28.20;;;;;;2046711;62;20534;-66
2024/04/14 01:11:12;0.00;0.00;0.62;0.00;0.00;0.62;4.30;3.40;;;28.30;28.20;;;;;;2046210;62;20507;-66
2024/04/14 01:13:57;0.00;0.00;0.62;0.00;0.00;0.62;3.60;3.30;;;28.30;28.20;;;;;;2041623;62;20498;-66
2024/04/14 01:16:42;0.00;0.00;0.62;0.00;0.00;0.62;3.83;3.10;;;28.30;28.20;;;;;;2041664;62;20453;-66
2024/04/14 01:19:27;0.00;0.00;0.62;0.00;0.00;0.62;4.47;3.03;;;28.30;28.20;;;;;;2041162;62;20931;-66
2024/04/14 01:22:11;0.00;0.00;0.62;0.00;0.00;0.62;4.43;3.50;;;28.30;28.20;;;;;;2041149;62;20553;-66
2024/04/14 01:25:03;0.00;0.00;0.62;0.00;0.00;0.62;4.00;3.30;;;28.30;28.20;;;;;;2041586;62;20537;-66
2024/04/14 01:27:48;0.00;0.00;0.62;0.00;0.00;0.62;5.07;3.30;;;28.30;28.20;;;;;;2041310;62;20596;-66
2024/04/14 01:30:33;0.00;0.00;0.62;0.00;0.00;0.62;3.70;3.03;;;28.30;28.20;;;;;;2041447;62;20453;-66
2024/04/14 01:33:17;0.00;0.00;0.62;0.00;0.00;0.62;4.47;3.57;;;28.30;28.20;;;;;;2041667;62;20524;-66
2024/04/14 01:36:02;0.00;0.00;0.62;0.00;0.00;0.62;4.70;3.03;;;28.20;28.10;;;;;;2046664;62;20510;-67
2024/04/14 01:38:47;0.00;0.00;0.62;0.00;0.00;0.62;4.07;3.20;;;28.20;28.10;;;;;;2046558;62;20563;-66
2024/04/14 01:41:34;0.00;0.00;0.62;0.00;0.00;0.62;3.63;2.67;;;28.20;28.10;;;;;;2046480;62;20467;-66
2024/04/14 01:44:19;0.00;0.00;0.62;0.00;0.00;0.62;3.60;2.67;;;28.20;28.10;;;;;;2046917;62;20525;-66
2024/04/14 01:47:05;0.00;0.00;0.62;0.00;0.00;0.62;4.23;3.00;;;28.30;28.10;;;;;;2046823;62;21026;-66
2024/04/14 01:49:49;0.00;0.00;0.62;0.00;0.00;0.62;3.67;2.40;;;28.20;28.00;;;;;;2040930;62;20560;-65
2024/04/14 01:52:34;0.00;0.00;0.62;0.00;0.00;0.62;5.20;2.80;;;28.20;28.00;;;;;;2041527;62;20466;-66
2024/04/14 01:55:18;0.00;0.00;0.62;0.00;0.00;0.62;3.60;2.70;;;28.20;28.00;;;;;;2041330;62;20515;-66
2024/04/14 01:58:05;0.00;0.00;0.62;0.00;0.00;0.62;4.03;2.53;;;28.20;28.00;;;;;;2040127;62;20568;-66
2024/04/14 02:00:51;0.00;0.00;0.62;0.00;0.00;0.62;3.27;2.33;;;28.20;28.00;;;;;;2041667;62;20539;-66
2024/04/14 02:03:35;0.00;0.00;0.62;0.00;0.00;0.62;3.60;2.83;;;28.20;28.00;;;;;;2041305;62;20942;-66
2024/04/14 02:06:21;0.00;0.00;0.62;0.00;0.00;0.62;3.33;2.73;;;28.20;27.90;;;;;;2041615;62;20912;-67
2024/04/14 02:09:05;0.00;0.00;0.62;0.00;0.00;0.62;4.93;2.83;;;28.20;27.90;;;;;;2041641;62;20513;-66
2024/04/14 02:11:50;0.00;0.00;0.62;0.00;0.00;0.62;3.10;2.40;;;28.20;27.90;;;;;;2041209;62;20477;-65
2024/04/14 02:14:37;0.00;0.00;0.62;0.00;0.00;0.62;4.90;2.87;;;28.20;27.90;;;;;;2041608;62;20527;-67
2024/04/14 02:17:22;0.00;0.00;0.62;0.00;0.00;0.62;3.27;2.67;;;28.20;27.90;;;;;;2041596;62;21072;-68
2024/04/14 02:20:10;0.00;0.00;0.62;0.00;0.00;0.62;3.60;2.80;;;28.20;27.90;;;;;;2040338;62;20466;-67
2024/04/14 02:22:55;0.00;0.00;0.62;0.00;0.00;0.62;3.70;2.70;;;28.20;27.90;;;;;;2041656;62;20507;-66
2024/04/14 02:25:39;0.00;0.00;0.62;0.00;0.00;0.62;3.40;2.67;;;28.20;27.80;;;;;;2042043;62;20461;-65
2024/04/14 02:28:24;0.00;0.00;0.62;0.00;0.00;0.62;3.60;2.60;;;28.10;27.80;;;;;;2046629;62;20881;-67
2024/04/14 02:31:12;0.00;0.00;0.62;0.00;0.00;0.62;4.27;2.57;;;28.10;27.80;;;;;;2047143;62;20530;-66
2024/04/14 02:33:57;0.00;0.00;0.62;0.00;0.00;0.62;3.30;2.60;;;28.10;27.70;;;;;;2044434;62;20551;-65
2024/04/14 02:36:41;0.00;0.00;0.62;0.00;0.00;0.62;3.57;2.43;;;28.10;27.70;;;;;;2041814;62;20480;-66
2024/04/14 02:39:26;0.00;0.00;0.62;0.00;0.00;0.62;4.20;2.90;;;28.10;27.70;;;;;;2041705;62;20584;-66
2024/04/14 02:42:10;0.00;0.00;0.62;0.00;0.00;0.62;2.97;2.47;;;28.10;27.70;;;;;;2041615;62;20463;-67
2024/04/14 02:44:55;0.00;0.00;0.62;0.00;0.00;0.62;2.80;2.33;;;28.10;27.70;;;;;;2041927;62;20523;-66
2024/04/14 02:47:42;0.00;0.00;0.62;0.00;0.00;0.62;3.93;2.80;;;28.10;27.70;;;;;;2041702;54;20675;-67
2024/04/14 02:50:27;0.00;0.00;0.62;0.00;0.00;0.62;2.33;1.90;;;28.10;27.70;;;;;;2041844;62;20917;-67
2024/04/14 02:53:12;0.00;0.00;0.62;0.00;0.00;0.62;2.83;1.97;;;28.10;27.70;;;;;;2042109;62;20491;-66
2024/04/14 02:55:56;0.00;0.00;0.62;0.00;0.00;0.62;3.60;2.53;;;28.10;27.70;;;;;;2041439;62;20468;-67
2024/04/14 02:58:41;0.00;0.00;0.62;0.00;0.00;0.62;3.20;2.30;;;28.10;27.70;;;;;;2041151;62;20889;-66
2024/04/14 03:01:26;0.00;0.00;0.62;0.00;0.00;0.62;3.73;2.60;;;28.10;28.20;;;;;;2041964;62;20477;-66
2024/04/14 03:04:14;0.00;0.00;0.62;0.00;0.00;0.62;2.53;1.93;;;28.10;27.70;;;;;;2045384;62;20533;-66
2024/04/14 03:06:59;0.00;0.00;0.62;0.00;0.00;0.62;3.10;2.40;;;28.10;27.60;;;;;;2046924;62;21034;-66
2024/04/14 03:09:43;0.00;0.00;0.62;0.00;0.00;0.62;3.50;2.10;;;28.00;27.60;;;;;;2047179;62;20884;-66
2024/04/14 03:12:28;0.00;0.00;0.62;0.00;0.00;0.62;4.90;2.47;;;28.10;27.60;;;;;;2046793;62;20464;-66
2024/04/14 03:15:13;0.00;0.00;0.62;0.00;0.00;0.62;3.77;2.73;;;28.00;27.60;;;;;;2047111;62;20973;-66
2024/04/14 03:17:58;0.00;0.00;0.62;0.00;0.00;0.62;4.40;2.50;;;28.10;27.60;;;;;;2044833;62;20466;-66
2024/04/14 03:20:54;0.00;0.00;0.62;0.00;0.00;0.62;2.50;2.00;;;28.00;27.50;;;;;;2041577;62;20518;-66
2024/04/14 03:23:39;0.00;0.00;0.62;0.00;0.00;0.62;4.40;2.40;;;28.00;27.50;;;;;;2041961;62;21039;-66
2024/04/14 03:26:24;0.00;0.00;0.62;0.00;0.00;0.62;2.90;2.27;;;28.00;27.50;;;;;;2041788;62;20477;-66
2024/04/14 03:29:10;0.00;0.00;0.62;0.00;0.00;0.62;4.37;2.80;;;28.00;27.50;;;;;;2041850;62;20477;-66
2024/04/14 03:31:55;0.00;0.00;0.62;0.00;0.00;0.62;2.37;1.80;;;28.00;27.50;;;;;;2042050;62;20469;-66
2024/04/14 03:34:42;0.00;0.00;0.62;0.00;0.00;0.62;2.93;2.20;;;28.00;27.50;;;;;;2041819;62;20462;-66
2024/04/14 03:37:29;0.00;0.00;0.62;0.00;0.00;0.62;3.10;2.10;;;28.00;27.50;;;;;;2041634;62;20465;-64
2024/04/14 03:40:14;0.00;0.00;0.62;0.00;0.00;0.62;3.63;2.20;;;28.00;27.50;;;;;;2043263;62;20468;-66
2024/04/14 03:42:59;0.00;0.00;0.62;0.00;0.00;0.62;4.33;2.00;;;28.00;27.50;;;;;;2047076;62;20921;-66
2024/04/14 03:45:44;0.00;0.00;0.62;0.00;0.00;0.62;3.60;2.20;;;28.00;27.50;;;;;;2046744;62;20472;-66
2024/04/14 03:48:28;0.00;0.00;0.62;0.00;0.00;0.62;4.13;2.47;;;28.00;27.50;;;;;;2042917;62;20475;-66
2024/04/14 03:51:14;0.00;0.00;0.62;0.00;0.00;0.62;3.20;2.20;;;28.00;27.50;;;;;;2041876;54;20461;-66
2024/04/14 03:54:03;0.00;0.00;0.62;0.00;0.00;0.62;3.20;2.40;;;28.00;27.50;;;;;;2041924;62;20545;-66
2024/04/14 03:56:47;0.00;0.00;0.62;0.00;0.00;0.62;2.70;2.03;;;27.90;27.40;;;;;;2041461;62;20500;-65
2024/04/14 03:59:32;0.00;0.00;0.62;0.00;0.00;0.62;2.53;2.33;;;28.00;27.50;;;;;;2041586;62;20478;-66
2024/04/14 04:02:17;0.00;0.00;0.62;0.00;0.00;0.62;2.60;2.00;;;28.00;27.50;;;;;;2042979;62;20464;-66
2024/04/14 04:05:02;0.00;0.00;0.62;0.00;0.00;0.62;3.80;2.40;;;27.90;27.40;;;;;;2046782;62;20518;-65
2024/04/14 04:07:48;0.00;0.00;0.62;0.00;0.00;0.62;3.60;2.27;;;27.90;27.40;;;;;;2046944;62;20529;-66
2024/04/14 04:10:35;0.00;0.00;0.62;0.00;0.00;0.62;2.93;2.63;;;27.90;27.40;;;;;;2043013;62;20540;-67
2024/04/14 04:13:20;0.00;0.00;0.62;0.00;0.00;0.62;2.97;2.50;;;27.90;27.40;;;;;;2041742;62;20477;-66
2024/04/14 04:16:06;0.00;0.00;0.62;0.00;0.00;0.62;3.23;2.30;;;27.90;27.40;;;;;;2042047;62;20541;-66
2024/04/14 04:18:51;0.00;0.00;0.62;0.00;0.00;0.62;3.53;2.37;;;27.90;27.40;;;;;;2037255;62;20525;-67
2024/04/14 04:21:36;0.00;0.00;0.62;0.00;0.00;0.62;3.93;2.03;;;27.90;27.40;;;;;;2041881;62;20469;-66
2024/04/14 04:24:21;0.00;0.00;0.62;0.00;0.00;0.62;3.13;2.47;;;27.90;27.40;;;;;;2040858;62;20505;-67
2024/04/14 04:27:08;0.00;0.00;0.62;0.00;0.00;0.62;3.17;1.93;;;27.90;27.40;;;;;;2041722;62;20535;-66
2024/04/14 04:29:53;0.00;0.00;0.62;0.00;0.00;0.62;4.03;2.33;;;27.80;27.30;;;;;;2041670;62;21119;-66
2024/04/14 04:32:37;0.00;0.00;0.62;0.00;0.00;0.62;3.67;2.70;;;27.90;27.30;;;;;;2041396;62;20971;-66
2024/04/14 04:35:22;0.00;0.00;0.62;0.00;0.00;0.62;3.47;2.50;;;27.90;27.30;;;;;;2041718;62;20535;-66
2024/04/14 04:38:07;0.00;0.00;0.62;0.00;0.00;0.62;2.80;1.83;;;27.90;27.30;;;;;;2041695;62;20477;-66
2024/04/14 04:40:52;0.00;0.00;0.62;0.00;0.00;0.62;3.40;2.30;;;27.80;27.20;;;;;;2045231;62;20502;-63
2024/04/14 04:43:41;0.00;0.00;0.62;0.00;0.00;0.62;3.30;2.00;;;27.80;27.20;;;;;;2046949;62;20926;-66
2024/04/14 04:46:26;0.00;0.00;0.62;0.00;0.00;0.62;3.43;2.00;;;27.80;27.20;;;;;;2045717;62;21042;-66
2024/04/14 04:49:10;0.00;0.00;0.62;0.00;0.00;0.62;3.20;2.00;;;27.80;27.10;;;;;;2041516;62;20486;-68
2024/04/14 04:51:55;0.00;0.00;0.62;0.00;0.00;0.62;3.00;1.70;;;27.80;27.10;;;;;;2042144;62;20469;-66
2024/04/14 04:54:40;0.00;0.00;0.62;0.00;0.00;0.62;2.37;1.53;;;27.80;27.60;;;;;;2041417;62;20874;-67
2024/04/14 04:57:24;0.00;0.00;0.62;0.00;0.00;0.62;3.30;2.03;;;27.80;27.00;;;;;;2041637;62;20478;-65
2024/04/14 05:00:13;0.00;0.00;0.62;0.00;0.00;0.62;2.87;1.50;;;27.80;26.90;;;;;;2041577;62;20527;-66
2024/04/14 05:02:58;0.00;0.00;0.62;0.00;0.00;0.62;2.77;1.63;;;27.80;26.90;;;;;;2041367;62;20477;-66
2024/04/14 05:05:42;0.00;0.00;0.62;0.00;0.00;0.62;3.50;2.23;;;27.80;26.80;;;;;;2041397;62;20465;-66
2024/04/14 05:08:27;0.00;0.00;0.62;0.00;0.00;0.62;2.90;1.60;;;27.80;26.80;;;;;;2041989;62;20478;-66
2024/04/14 05:11:12;0.00;0.00;0.62;0.00;0.00;0.62;2.90;1.50;;;27.70;26.80;;;;;;2047072;62;20538;-66
2024/04/14 05:13:56;0.00;0.00;0.62;0.00;0.00;0.62;2.00;1.47;;;27.80;26.80;;;;;;2047064;62;21082;-66
2024/04/14 05:16:44;0.00;0.00;0.62;0.00;0.00;0.62;2.53;1.87;;;27.80;26.80;;;;;;2043654;62;20536;-65
2024/04/14 05:19:28;0.00;0.00;0.62;0.00;0.00;0.62;2.47;1.60;;;27.80;26.80;;;;;;2041291;62;20600;-66
2024/04/14 05:22:13;0.00;0.00;0.62;0.00;0.00;0.62;2.53;1.70;;;27.70;26.70;;;;;;2041857;62;20468;-66
2024/04/14 05:24:58;0.00;0.00;0.62;0.00;0.00;0.62;2.50;1.70;;;27.80;26.70;;;;;;2041446;62;20474;-66
2024/04/14 05:27:42;0.00;0.00;0.62;0.00;0.00;0.62;2.40;1.73;;;27.70;26.70;;;;;;2041551;62;20473;-66
2024/04/14 05:30:28;0.00;0.00;0.62;0.00;0.00;0.62;3.30;1.40;;;27.70;26.70;;;;;;2041294;62;20461;-66
2024/04/14 05:33:16;0.00;0.00;0.62;0.00;0.00;0.62;5.50;1.87;;;27.70;26.70;;;;;;2041158;62;20462;-66
2024/04/14 05:36:00;0.00;0.00;0.62;0.00;0.00;0.62;4.73;1.70;;;27.70;27.00;;;;;;2041545;62;20566;-66
2024/04/14 05:38:47;0.00;0.00;0.62;0.00;0.00;0.62;3.23;1.70;;;27.70;26.70;;;;;;2041281;62;20499;-66
2024/04/14 05:41:32;0.00;0.00;0.62;0.00;0.00;0.62;2.57;1.90;;;27.70;26.60;;;;;;2041685;62;20913;-67
2024/04/14 05:44:17;0.00;0.00;0.62;0.00;0.00;0.62;2.70;1.50;;;27.70;26.60;;;;;;2041697;62;20869;-66
2024/04/14 05:47:02;0.00;0.00;0.62;0.00;0.00;0.62;3.23;2.07;;;27.70;26.60;;;;;;2045355;62;21040;-66
2024/04/14 05:49:49;0.00;0.00;0.62;0.00;0.00;0.62;2.97;1.57;;;27.70;26.50;;;;;;2046567;62;20481;-66
2024/04/14 05:52:34;0.00;0.00;0.62;0.00;0.00;0.62;2.70;1.47;;;27.70;26.50;;;;;;2046941;54;20473;-65
2024/04/14 05:55:19;0.00;0.00;0.62;0.00;0.00;0.62;2.23;1.60;;;27.70;26.50;;;;;;2046780;62;20543;-66
2024/04/14 05:58:04;0.00;0.00;0.62;0.00;0.00;0.62;4.20;2.03;;;27.70;26.50;;;;;;2046931;54;20488;-66
2024/04/14 06:00:49;0.00;0.00;0.62;0.00;0.00;0.62;3.23;1.60;;;27.70;27.00;;;;;;2044632;62;20462;-66
2024/04/14 06:03:33;0.00;0.00;0.62;0.00;0.00;0.62;3.50;2.13;;;27.70;26.40;;;;;;2041328;62;20535;-66
2024/04/14 06:06:21;0.00;0.00;0.62;0.00;0.00;0.62;2.53;1.67;;;27.70;26.40;;;;;;2042140;62;20488;-66
2024/04/14 06:09:05;0.00;0.00;0.62;0.00;0.00;0.62;3.30;2.23;;;27.60;26.40;;;;;;2041096;62;20533;-66
2024/04/14 06:11:50;0.00;0.00;0.62;0.00;0.00;0.62;2.43;1.97;;;27.60;26.40;;;;;;2041553;62;20462;-66
2024/04/14 06:14:34;0.00;0.00;0.62;0.00;0.00;0.62;2.53;1.50;;;27.60;26.30;;;;;;2044554;62;20910;-65
2024/04/14 06:17:19;0.00;0.00;0.62;0.00;0.00;0.62;2.37;1.50;;;27.60;26.30;;;;;;2046157;62;20549;-66
2024/04/14 06:20:06;0.00;0.00;0.62;0.00;0.00;0.62;3.27;1.87;;;27.60;26.30;;;;;;2046368;62;20484;-66
2024/04/14 06:22:53;0.00;0.00;0.62;0.00;0.00;0.62;6.50;1.63;;;27.60;26.30;;;;;;2044995;62;20480;-66
2024/04/14 06:25:38;0.00;0.00;0.62;0.00;0.00;0.62;3.80;1.90;;;27.60;26.30;;;;;;2041502;62;20528;-66
2024/04/14 06:28:23;0.00;0.00;0.62;0.00;0.00;0.62;2.50;1.83;;;27.60;26.30;;;;;;2041645;62;20539;-66
2024/04/14 06:31:08;0.00;0.00;0.62;0.00;0.00;0.62;3.00;2.00;;;27.60;26.20;;;;;;2044496;62;20911;-66
2024/04/14 06:33:52;0.00;0.00;0.62;0.00;0.00;0.62;3.07;1.60;;;27.60;26.20;;;;;;2046620;62;20460;-66
2024/04/14 06:36:37;0.00;0.00;0.62;0.00;0.00;0.62;3.63;2.30;;;27.60;26.20;;;;;;2046599;62;20464;-66
2024/04/14 06:39:24;0.00;0.00;0.62;0.00;0.00;0.62;3.80;1.70;;;27.60;26.20;;;;;;2042503;62;20477;-66
2024/04/14 06:42:09;0.00;0.00;0.62;0.00;0.00;0.62;2.70;1.53;;;27.60;26.20;;;;;;2041613;62;20535;-66
2024/04/14 06:44:54;0.00;0.00;0.62;0.00;0.00;0.62;2.87;1.90;;;27.60;26.20;;;;;;2041053;62;20473;-66
2024/04/14 06:47:39;0.00;0.00;0.62;0.00;0.00;0.62;2.60;1.57;;;27.60;26.20;;;;;;2041529;62;20532;-65
2024/04/14 06:50:24;0.00;0.00;0.62;0.00;0.00;0.62;4.47;2.53;;;27.60;26.20;;;;;;2041524;62;20540;-66
2024/04/14 06:53:08;0.00;0.00;0.62;0.00;0.00;0.62;3.43;1.83;;;27.50;26.10;;;;;;2041041;62;20462;-66
2024/04/14 06:56:00;0.00;0.00;0.62;0.00;0.00;0.62;2.93;1.83;;;27.50;26.10;;;;;;2041592;62;20461;-66
2024/04/14 06:58:44;0.00;0.00;0.62;0.00;0.00;0.62;3.40;1.90;;;27.50;26.50;;;;;;2041638;62;20478;-66
2024/04/14 07:01:29;0.00;0.00;0.62;0.00;0.00;0.62;3.50;1.90;;;27.50;26.00;;;;;;2040806;62;20553;-66
2024/04/14 07:04:14;0.00;0.00;0.62;0.00;0.00;0.62;3.90;1.90;;;27.60;26.00;;;;;;2041646;62;20540;-67
2024/04/14 07:06:59;0.00;0.00;0.62;0.00;0.00;0.62;4.53;1.57;;;27.60;25.90;;;;;;2041130;62;20581;-66
2024/04/14 07:09:44;0.00;0.00;0.62;0.00;0.00;0.62;3.00;1.80;;;27.60;25.90;;;;;;2041139;62;20465;-66
2024/04/14 07:12:31;0.00;0.00;0.62;0.00;0.00;0.62;3.90;1.70;;;27.60;25.80;;;;;;2041541;62;20519;-66
2024/04/14 07:15:16;0.00;0.00;0.62;0.00;0.00;0.62;3.37;2.10;;;27.60;25.80;;;;;;2041602;62;20543;-65
2024/04/14 07:18:01;0.00;0.00;0.62;0.00;0.00;0.62;3.43;1.50;;;27.50;25.70;;;;;;2041747;62;20456;-66
2024/04/14 07:20:45;0.00;0.00;0.62;0.00;0.00;0.62;2.70;1.63;;;27.60;26.30;;;;;;2041933;62;20457;-66
2024/04/14 07:23:31;0.00;0.00;0.62;0.00;0.00;0.62;3.30;2.30;;;27.50;25.70;;;;;;2041740;62;20575;-65
2024/04/14 07:26:16;0.00;0.00;0.62;0.00;0.00;0.62;4.50;2.90;;;27.50;25.70;;;;;;2042014;62;20535;-66
2024/04/14 07:29:04;0.00;0.00;0.62;0.00;0.00;0.62;3.43;2.57;;;27.50;25.60;;;;;;2040902;62;20452;-65
2024/04/14 07:31:49;0.00;0.00;0.62;0.00;0.00;0.62;3.13;2.23;;;27.50;25.60;;;;;;2041947;62;20469;-65
2024/04/14 07:34:34;0.00;0.00;0.62;0.00;0.00;0.62;4.50;2.80;;;27.50;25.50;;;;;;2042098;62;20998;-64
2024/04/14 07:37:18;0.00;0.00;0.62;0.00;0.00;0.62;4.00;2.83;;;27.50;25.50;;;;;;2043961;62;20543;-66
2024/04/14 07:40:04;0.00;0.00;0.62;0.00;0.00;0.62;3.80;2.03;;;27.50;25.50;;;;;;2046673;62;20472;-66
2024/04/14 07:42:49;0.00;0.00;0.62;0.00;0.00;0.62;3.83;2.70;;;27.50;25.50;;;;;;2047111;62;20562;-67
2024/04/14 07:45:37;0.00;0.00;0.62;0.00;0.00;0.62;4.93;2.77;;;27.50;25.40;;;;;;2042498;62;20520;-66
2024/04/14 07:48:22;0.00;0.00;0.62;0.00;0.00;0.62;4.83;3.20;;;27.50;25.40;;;;;;2042022;62;20544;-66
2024/04/14 07:51:07;0.00;0.00;0.62;0.00;0.00;0.62;3.53;2.97;;;27.50;25.40;;;;;;2041803;62;20914;-64
2024/04/14 07:53:52;0.00;0.00;0.62;0.00;0.00;0.62;5.00;2.67;;;27.50;25.40;;;;;;2046969;62;20848;-67
2024/04/14 07:56:37;0.00;0.00;0.62;0.00;0.00;0.62;4.90;3.20;;;27.50;25.40;;;;;;2046989;62;20503;-66
2024/04/14 07:59:22;0.00;0.00;0.62;0.00;0.00;0.62;6.37;3.83;;;27.50;25.30;;;;;;2046308;62;20978;-65
2024/04/14 08:02:09;0.00;0.00;0.62;0.00;0.00;0.62;4.37;3.20;;;27.50;25.30;;;;;;2047150;62;21278;-66
2024/04/14 08:04:54;0.00;0.00;0.62;0.00;0.00;0.62;5.40;3.00;;;27.50;25.30;;;;;;2047102;62;20463;-66
2024/04/14 08:07:38;0.00;0.00;0.62;0.00;0.00;0.62;5.27;3.63;;;27.50;25.30;;;;;;2042730;62;20927;-65
2024/04/14 08:10:24;0.00;0.00;0.62;0.00;0.00;0.62;5.43;3.90;;;27.50;25.30;;;;;;2041485;62;20865;-67
2024/04/14 08:13:09;0.00;0.00;0.62;0.00;0.00;0.62;5.77;3.53;;;27.50;25.30;;;;;;2041998;62;20461;-67
2024/04/14 08:15:53;0.00;0.00;0.62;0.00;0.00;0.62;5.60;3.47;;;27.50;25.20;;;;;;2041612;62;20902;-66
2024/04/14 08:18:41;0.00;0.00;0.62;0.00;0.00;0.62;5.47;3.70;;;27.50;25.20;;;;;;2041055;62;21108;-66
2024/04/14 08:21:25;0.00;0.00;0.62;0.00;0.00;0.62;5.50;3.90;;;27.50;25.20;;;;;;2041530;62;20911;-65
2024/04/14 08:24:10;0.00;0.00;0.62;0.00;0.00;0.62;6.40;3.53;;;27.50;25.70;;;;;;2041334;62;20532;-65
2024/04/14 08:26:54;0.00;0.00;0.62;0.00;0.00;0.62;6.93;4.83;;;27.50;25.10;;;;;;2041792;62;20531;-66
2024/04/14 08:29:39;0.00;0.00;0.62;0.00;0.00;0.62;4.37;2.63;;;27.50;25.10;;;;;;2041424;62;20738;-66
2024/04/14 08:32:23;0.00;0.00;0.62;0.00;0.00;0.62;5.60;3.70;;;27.50;25.00;;;;;;2041885;62;20470;-66
2024/04/14 08:35:11;0.00;0.00;0.62;0.00;0.00;0.62;5.23;3.70;;;27.40;25.00;;;;;;2041915;62;20457;-67
2024/04/14 08:37:55;0.00;0.00;0.62;0.00;0.00;0.62;5.07;4.03;;;27.40;24.90;;;;;;2041697;62;20761;-66
2024/04/14 08:40:40;0.00;0.00;0.62;0.00;0.00;0.62;4.30;3.87;;;27.50;25.00;;;;;;2041573;62;20454;-67
2024/04/14 08:43:25;0.00;0.00;0.62;0.00;0.00;0.62;5.57;4.13;;;27.50;25.00;;;;;;2041412;62;21034;-66
2024/04/14 08:46:12;0.00;0.00;0.62;0.00;0.00;0.62;4.27;3.37;;;27.50;25.00;;;;;;2041792;62;20531;-66
2024/04/14 08:48:58;0.00;0.00;0.62;0.00;0.00;0.62;4.63;4.13;;;27.40;25.00;;;;;;2041702;62;20516;-65
2024/04/14 08:51:49;0.00;0.00;0.62;0.00;0.00;0.62;5.73;3.43;;;27.50;25.10;;;;;;2042528;62;20490;-66
2024/04/14 08:54:34;0.00;0.00;0.62;0.00;0.00;0.62;7.30;4.57;;;27.50;25.10;;;;;;2041826;62;20883;-66
2024/04/14 08:57:19;0.00;0.00;0.62;0.00;0.00;0.62;3.93;3.00;;;27.50;25.10;;;;;;2041923;62;20500;-67
2024/04/14 09:00:09;0.00;0.00;0.62;0.00;0.00;0.62;8.10;4.57;;;27.50;25.10;;;;;;2041508;54;21128;-67
2024/04/14 09:02:55;0.00;0.00;0.62;0.00;0.00;0.62;5.77;3.97;;;27.40;25.00;;;;;;2041878;62;20854;-66
2024/04/14 09:05:42;0.00;0.00;0.62;0.00;0.00;0.62;5.50;4.17;;;27.50;25.10;;;;;;2042915;62;20464;-67
2024/04/14 09:08:29;0.00;0.00;0.62;0.00;0.00;0.62;5.50;4.17;;;27.50;25.10;;;;;;2046595;62;20485;-67
2024/04/14 09:11:14;0.00;0.00;0.62;0.00;0.00;0.62;5.43;3.73;;;27.50;25.10;;;;;;2046876;62;20522;-66
2024/04/14 09:13:59;0.00;0.00;0.62;0.00;0.00;0.62;6.57;4.50;;;27.40;25.10;;;;;;2043219;62;21073;-66
2024/04/14 09:16:44;0.00;0.00;0.62;0.00;0.00;0.62;4.60;3.83;;;27.50;25.10;;;;;;2041646;62;21082;-66
2024/04/14 09:19:29;0.00;0.00;0.62;0.00;0.00;0.62;5.53;4.10;;;27.50;25.10;;;;;;2041730;62;20549;-66
2024/04/14 09:22:14;0.00;0.00;0.62;0.00;0.00;0.62;6.10;4.37;;;27.50;25.10;;;;;;2046495;62;20460;-66
2024/04/14 09:25:01;0.00;0.00;0.62;0.00;0.00;0.62;5.30;4.07;;;27.50;25.10;;;;;;2046928;62;20510;-67
2024/04/14 09:27:46;0.00;0.00;0.62;0.00;0.00;0.62;4.53;3.57;;;27.50;25.00;;;;;;2045278;62;20465;-66
2024/04/14 09:30:31;0.00;0.00;0.62;0.00;0.00;0.62;5.97;4.03;;;27.50;25.00;;;;;;2041848;62;20850;-67
2024/04/14 09:33:16;0.00;0.00;0.62;0.00;0.00;0.62;4.67;3.50;;;27.50;25.00;;;;;;2041790;62;20477;-66
2024/04/14 09:36:01;0.00;0.00;0.62;0.00;0.00;0.62;4.70;3.60;;;27.50;25.00;;;;;;2043879;62;20479;-65
2024/04/14 09:38:46;0.00;0.00;0.62;0.00;0.00;0.62;5.20;3.97;;;27.50;25.00;;;;;;2046610;62;21024;-66
2024/04/14 09:41:35;0.00;0.00;0.62;0.00;0.00;0.62;4.60;3.30;;;27.40;24.90;;;;;;2046818;62;20453;-66
2024/04/14 09:44:21;0.00;0.00;0.62;0.00;0.00;0.62;4.70;3.60;;;27.40;24.90;;;;;;2046259;62;20567;-66
2024/04/14 09:47:08;0.00;0.00;0.62;0.00;0.00;0.62;4.70;3.43;;;27.40;24.90;;;;;;2046822;62;20452;-66
2024/04/14 09:49:54;0.00;0.00;0.62;0.00;0.00;0.62;3.90;2.80;;;27.40;24.90;;;;;;2045256;62;20473;-65
2024/04/14 09:52:42;0.00;0.00;0.62;0.00;0.00;0.62;5.50;3.77;;;27.40;24.90;;;;;;2041061;62;20928;-66
2024/04/14 09:55:27;0.00;0.00;0.62;0.00;0.00;0.62;4.10;2.93;;;27.40;24.90;;;;;;2041928;62;20531;-66
2024/04/14 09:58:14;0.00;0.00;0.62;0.00;0.00;0.62;4.27;3.20;;;27.40;24.90;;;;;;2044419;62;20500;-66
2024/04/14 10:01:03;0.00;0.00;0.62;0.00;0.00;0.62;3.67;2.70;;;27.40;24.90;;;;;;2046756;62;20490;-66
2024/04/14 10:03:51;0.00;0.00;0.62;0.00;0.00;0.62;4.40;3.17;;;27.50;24.90;;;;;;2046950;62;20472;-67
2024/04/14 10:06:39;0.00;0.00;0.62;0.00;0.00;0.62;4.93;3.43;;;27.50;24.90;;;;;;2046366;62;20469;-66
2024/04/14 10:09:24;0.00;0.00;0.62;0.00;0.00;0.62;4.80;3.10;;;27.50;24.90;;;;;;2046586;62;20471;-66
2024/04/14 10:12:09;0.00;0.00;0.62;0.00;0.00;0.62;3.47;2.43;;;27.50;24.90;;;;;;2045206;62;20477;-66
2024/04/14 10:15:01;0.00;0.00;0.62;0.00;0.00;0.62;5.63;3.17;;;27.50;24.90;;;;;;2041604;62;21026;-66
2024/04/14 10:17:46;0.00;0.00;0.62;0.00;0.00;0.62;2.93;2.37;;;27.50;25.40;;;;;;2041536;62;20478;-66
2024/04/14 10:20:42;0.00;0.00;0.62;0.00;0.00;0.62;4.57;3.27;;;27.50;24.80;;;;;;2044340;62;20472;-66
2024/04/14 10:23:27;0.00;0.00;0.62;0.00;0.00;0.62;6.83;2.63;;;27.50;24.80;;;;;;2046524;62;20468;-66
2024/04/14 10:26:15;0.00;0.00;0.62;0.00;0.00;0.62;3.33;2.40;;;27.50;24.80;;;;;;2046908;62;20513;-65
2024/04/14 10:29:00;0.00;0.00;0.62;0.00;0.00;0.62;3.57;2.43;;;27.50;24.80;;;;;;2041045;62;20900;-66
2024/04/14 10:31:52;0.00;0.00;0.62;0.00;0.00;0.62;3.17;2.10;;;27.50;24.80;;;;;;2041525;62;20469;-66
2024/04/14 10:34:37;0.00;0.00;0.62;0.00;0.00;0.62;3.77;2.33;;;27.50;24.80;;;;;;2041383;62;20544;-67
2024/04/14 10:37:22;0.00;0.00;0.62;0.00;0.00;0.62;3.30;2.43;;;27.50;24.70;;;;;;2041511;62;20465;-66
2024/04/14 10:40:12;0.00;0.00;0.62;0.00;0.00;0.62;4.17;2.90;;;27.50;24.70;;;;;;2041165;62;20862;-66
2024/04/14 10:42:58;0.00;0.00;0.62;0.00;0.00;0.62;5.60;3.10;;;27.50;24.70;;;;;;2044934;62;20456;-65
2024/04/14 10:45:43;0.00;0.00;0.62;0.00;0.00;0.62;4.27;2.23;;;27.50;24.70;;;;;;2046554;62;20515;-67
2024/04/14 10:48:31;0.00;0.00;0.62;0.00;0.00;0.62;3.53;2.60;;;27.50;24.70;;;;;;2046737;62;21050;-65
2024/04/14 10:51:16;0.00;0.00;0.62;0.00;0.00;0.62;3.80;2.67;;;27.50;24.70;;;;;;2047044;62;20530;-66
2024/04/14 10:54:00;0.00;0.00;0.62;0.00;0.00;0.62;3.20;2.37;;;27.50;24.70;;;;;;2047233;62;21135;-66